createdAt,value
2022-10-29T00:02:35.603Z,12.5
2022-10-29T00:07:38.317Z,12.5
2022-10-29T00:12:40.693Z,12.5
2022-10-29T00:17:42.600Z,12.5
2022-10-29T00:22:44.765Z,12.5
2022-10-29T00:27:46.726Z,12.6
2022-10-29T00:32:49.761Z,12.5
2022-10-29T00:37:51.757Z,12.5
2022-10-29T00:42:53.980Z,12.4
2022-10-29T00:47:57.267Z,12.4
2022-10-29T00:52:59.999Z,12.3
2022-10-29T00:58:06.274Z,12.4
2022-10-29T01:03:08.723Z,12.3
2022-10-29T01:08:10.729Z,12.3
2022-10-29T01:13:12.986Z,12.2
2022-10-29T01:18:14.972Z,12.3
2022-10-29T01:23:16.909Z,12.3
2022-10-29T01:28:18.929Z,12.3
2022-10-29T01:33:21.101Z,12.3
2022-10-29T01:38:24.045Z,12.3
2022-10-29T01:43:26.525Z,12.3
2022-10-29T01:48:34.387Z,12.5
2022-10-29T01:53:36.649Z,12.5
2022-10-29T01:58:38.916Z,12.5
2022-10-29T02:03:41.163Z,12.5
2022-10-29T02:08:43.091Z,12.4
2022-10-29T02:13:46.342Z,12.4
2022-10-29T02:18:49.598Z,12.4
2022-10-29T02:23:51.914Z,12.3
2022-10-29T02:28:53.807Z,12.3
2022-10-29T02:33:55.738Z,12.3
2022-10-29T02:38:57.867Z,12.3
2022-10-29T02:43:59.845Z,12.2
2022-10-29T02:49:01.742Z,12.1
2022-10-29T02:54:07.062Z,12.1
2022-10-29T02:59:13.688Z,12.1
2022-10-29T03:04:15.713Z,12.1
2022-10-29T03:09:17.866Z,12.1
2022-10-29T03:14:19.850Z,12.1
2022-10-29T03:19:21.848Z,12
2022-10-29T03:24:24.282Z,11.9
2022-10-29T03:29:26.452Z,11.8
2022-10-29T03:34:28.419Z,11.9
2022-10-29T03:39:30.388Z,11.9
2022-10-29T03:44:32.477Z,11.8
2022-10-29T03:49:34.429Z,12
2022-10-29T03:59:37.553Z,11.9
2022-10-29T04:04:40.786Z,11.8
2022-10-29T04:09:43.165Z,11.8
2022-10-29T04:14:47.547Z,11.8
2022-10-29T04:19:49.639Z,11.8
2022-10-29T04:27:08.203Z,11.7
2022-10-29T04:29:53.992Z,11.8
2022-10-29T04:34:55.880Z,11.8
2022-10-29T04:39:57.749Z,11.7
2022-10-29T04:45:00.167Z,11.7
2022-10-29T04:50:02.757Z,11.7
2022-10-29T04:55:05.238Z,11.8
2022-10-29T05:00:07.094Z,11.7
2022-10-29T05:05:09.064Z,11.8
2022-10-29T05:10:11.687Z,11.7
2022-10-29T05:15:13.764Z,11.7
2022-10-29T05:20:15.578Z,11.7
2022-10-29T05:25:19.468Z,11.7
2022-10-29T05:30:21.859Z,11.7
2022-10-29T05:35:25.273Z,11.7
2022-10-29T05:40:28.159Z,11.7
2022-10-29T05:45:30.594Z,11.6
2022-10-29T05:50:32.461Z,11.6
2022-10-29T05:55:34.381Z,11.6
2022-10-29T06:00:36.533Z,11.6
2022-10-29T06:05:38.454Z,11.5
2022-10-29T06:10:40.397Z,11.6
2022-10-29T06:15:42.413Z,11.6
2022-10-29T06:20:44.442Z,11.7
2022-10-29T06:25:46.670Z,11.8
2022-10-29T06:30:48.553Z,11.8
2022-10-29T06:35:51.489Z,11.7
2022-10-29T06:40:53.449Z,11.8
2022-10-29T06:45:55.615Z,11.8
2022-10-29T06:50:58.157Z,11.9
2022-10-29T06:56:00.148Z,11.9
2022-10-29T07:01:02.186Z,12
2022-10-29T07:06:04.338Z,11.9
2022-10-29T07:11:07.861Z,11.9
2022-10-29T07:16:09.844Z,11.8
2022-10-29T07:21:12.282Z,11.8
2022-10-29T07:26:14.180Z,11.9
2022-10-29T07:31:16.127Z,12
2022-10-29T07:36:18.129Z,11.9
2022-10-29T07:41:21.358Z,11.9
2022-10-29T07:46:23.538Z,12.2
2022-10-29T07:51:25.462Z,12.1
2022-10-29T07:56:27.530Z,12.3
2022-10-29T08:01:29.671Z,12.4
2022-10-29T08:06:33.022Z,12.4
2022-10-29T08:11:35.308Z,12.5
2022-10-29T08:16:37.660Z,12.4
2022-10-29T08:21:39.542Z,12.3
2022-10-29T08:26:41.868Z,12.3
2022-10-29T08:31:44.081Z,12.3
2022-10-29T08:36:46.525Z,12.4
2022-10-29T08:41:48.448Z,12.5
2022-10-29T08:46:51.426Z,12.4
2022-10-29T08:51:56.041Z,12.4
2022-10-29T08:56:57.971Z,12.6
2022-10-29T09:02:00.710Z,12.6
2022-10-29T09:07:02.869Z,12.5
2022-10-29T09:12:05.029Z,12.6
2022-10-29T09:17:11.384Z,13
2022-10-29T09:22:17.074Z,13
2022-10-29T09:27:20.262Z,13.1
2022-10-29T09:32:22.581Z,13.2
2022-10-29T09:37:24.857Z,13.3
2022-10-29T09:42:26.959Z,13.4
2022-10-29T09:47:29.225Z,13.5
2022-10-29T09:52:32.067Z,13.5
2022-10-29T09:57:34.220Z,13.5
2022-10-29T10:02:36.622Z,13.4
2022-10-29T10:07:39.116Z,13.4
2022-10-29T10:12:42.964Z,13.1
2022-10-29T10:17:47.164Z,13.1
2022-10-29T10:22:49.234Z,13.2
2022-10-29T10:27:52.753Z,13.7
2022-10-29T10:32:56.537Z,13.4
2022-10-29T10:38:01.663Z,13.5
2022-10-29T10:43:10.196Z,13.5
2022-10-29T10:48:13.893Z,13.5
2022-10-29T10:53:15.916Z,13.5
2022-10-29T10:58:21.275Z,13.5
2022-10-29T11:03:26.776Z,13.5
2022-10-29T11:08:29.051Z,13.7
2022-10-29T11:13:31.129Z,14.4
2022-10-29T11:18:33.158Z,14.8
2022-10-29T11:23:35.565Z,14.7
2022-10-29T11:28:37.763Z,14.7
2022-10-29T11:33:40.129Z,14.6
2022-10-29T11:38:42.050Z,14.7
2022-10-29T11:43:44.032Z,14.6
2022-10-29T11:48:46.166Z,14.9
2022-10-29T11:53:48.087Z,14.7
2022-10-29T11:58:50.370Z,14.9
2022-10-29T12:03:52.547Z,15.2
2022-10-29T12:08:58.901Z,15.1
2022-10-29T12:14:01.150Z,15.1
2022-10-29T12:19:08.205Z,15.6
2022-10-29T12:24:10.198Z,15.6
2022-10-29T12:29:13.432Z,15.7
2022-10-29T12:34:15.357Z,16.1
2022-10-29T12:39:17.347Z,16
2022-10-29T12:44:19.754Z,16
2022-10-29T12:49:21.952Z,16
2022-10-29T12:54:23.844Z,16.3
2022-10-29T12:59:27.516Z,17.5
2022-10-29T13:04:32.596Z,17.8
2022-10-29T13:09:34.996Z,17.7
2022-10-29T13:14:37.196Z,17.7
2022-10-29T13:19:39.138Z,17.1
2022-10-29T13:24:42.293Z,17.4
2022-10-29T13:29:44.390Z,17.3
2022-10-29T13:34:47.519Z,17.2
2022-10-29T13:39:49.609Z,16.9
2022-10-29T13:44:52.201Z,16.6
2022-10-29T13:49:55.218Z,16.8
2022-10-29T13:54:57.498Z,16.9
2022-10-29T13:59:59.671Z,17.1
2022-10-29T14:05:01.935Z,17.3
2022-10-29T14:10:03.886Z,17.2
2022-10-29T14:15:06.030Z,16.8
2022-10-29T14:20:08.209Z,16.9
2022-10-29T14:25:17.839Z,16.2
2022-10-29T14:30:10.462Z,16.1
2022-10-29T14:35:12.506Z,16
2022-10-29T14:40:14.783Z,15.9
2022-10-29T14:45:17.209Z,15.6
2022-10-29T14:50:19.621Z,15.6
2022-10-29T14:55:21.596Z,15.6
2022-10-29T15:00:23.555Z,15.5
2022-10-29T15:05:25.759Z,15.3
2022-10-29T15:10:27.867Z,15.2
2022-10-29T15:15:29.730Z,15
2022-10-29T15:20:31.815Z,14.8
2022-10-29T15:25:33.940Z,14.5
2022-10-29T15:30:35.989Z,14.2
2022-10-29T15:35:38.190Z,13.9
2022-10-29T15:40:40.157Z,13.8
2022-10-29T15:45:42.040Z,13.4
2022-10-29T15:50:48.984Z,13.2
2022-10-29T15:55:51.485Z,13
2022-10-29T16:00:53.812Z,12.8
2022-10-29T16:05:55.821Z,12.7
2022-10-29T16:11:01.173Z,12.4
2022-10-29T16:16:06.195Z,12.2
2022-10-29T16:21:08.635Z,12.1
2022-10-29T16:26:11.959Z,12.1
2022-10-29T16:31:18.317Z,12.1
2022-10-29T16:36:23.283Z,12
2022-10-29T16:41:25.221Z,12
2022-10-29T16:46:27.146Z,11.8
2022-10-29T16:51:32.033Z,11.8
2022-10-29T16:56:34.083Z,11.7
2022-10-29T17:01:36.296Z,11.6
2022-10-29T17:06:38.472Z,11.6
2022-10-29T17:11:43.488Z,11.7
2022-10-29T17:16:45.392Z,11.6
2022-10-29T17:21:47.351Z,11.5
2022-10-29T17:26:49.332Z,11.5
2022-10-29T17:31:51.489Z,11.7
2022-10-29T17:36:53.639Z,11.9
2022-10-29T17:41:58.592Z,12.1
2022-10-29T17:47:00.704Z,12.1
2022-10-29T17:52:03.020Z,12.1
2022-10-29T17:57:06.313Z,12.2
2022-10-29T18:02:15.133Z,12.1
2022-10-29T18:07:17.455Z,12.1
2022-10-29T18:12:19.683Z,12.2
2022-10-29T18:17:21.673Z,12.1
2022-10-29T18:22:23.570Z,12
2022-10-29T18:27:26.744Z,12.1
2022-10-29T18:32:28.703Z,12.2
2022-10-29T18:37:30.642Z,12.1
2022-10-29T18:42:32.737Z,12.1
2022-10-29T18:47:35.984Z,12.1
2022-10-29T18:52:41.199Z,12.1
2022-10-29T18:57:43.312Z,12.1
2022-10-29T19:02:45.314Z,12.1
2022-10-29T19:07:50.511Z,12.3
2022-10-29T19:12:53.768Z,12.4
2022-10-29T19:18:00.330Z,12.2
2022-10-29T19:23:03.797Z,12.3
2022-10-29T19:28:07.333Z,12.3
2022-10-29T19:33:11.077Z,12.4
2022-10-29T19:38:13.495Z,12.3
2022-10-29T19:43:15.778Z,12.3
2022-10-29T19:48:17.868Z,12.3
2022-10-29T19:53:19.951Z,12.3
2022-10-29T19:58:22.095Z,12.3
2022-10-29T20:03:27.112Z,12.3
2022-10-29T20:08:29.055Z,12.3
2022-10-29T20:13:31.082Z,12.2
2022-10-29T20:18:33.105Z,12.2
2022-10-29T20:23:35.030Z,12.2
2022-10-29T20:28:37.131Z,12.1
2022-10-29T20:33:39.206Z,12.1
2022-10-29T20:38:41.628Z,12.2
2022-10-29T20:43:44.045Z,12.2
2022-10-29T20:48:49.934Z,12.1
2022-10-29T20:53:53.572Z,12.1
2022-10-29T20:59:01.350Z,12.2
2022-10-29T21:04:03.964Z,12.1
2022-10-29T21:09:07.136Z,12.1
2022-10-29T21:14:09.730Z,12.1
2022-10-29T21:19:12.071Z,12.1
2022-10-29T21:24:17.300Z,12.1
2022-10-29T21:29:19.468Z,12
2022-10-29T21:34:21.419Z,12.1
2022-10-29T21:39:23.449Z,12.1
2022-10-29T21:44:25.379Z,12.1
2022-10-29T21:49:27.351Z,12.2
2022-10-29T21:54:30.618Z,12.1
2022-10-29T21:59:32.531Z,12.1
2022-10-29T22:04:34.701Z,12.2
2022-10-29T22:09:36.630Z,12.2
2022-10-29T22:14:38.508Z,12.2
2022-10-29T22:19:40.375Z,12.3
2022-10-29T22:24:42.242Z,12.3
2022-10-29T22:29:44.282Z,12.4
2022-10-29T22:34:46.171Z,12.4
2022-10-29T22:44:48.429Z,12.4
2022-10-29T22:49:50.297Z,12.4
2022-10-29T22:54:52.820Z,12.4
2022-10-29T22:59:54.708Z,12.3
2022-10-29T23:04:56.680Z,12.3
2022-10-29T23:09:58.780Z,12.2
2022-10-29T23:15:00.666Z,12.1
2022-10-29T23:20:03.081Z,12.2
2022-10-29T23:25:05.243Z,12.1
2022-10-29T23:35:07.780Z,12.2
2022-10-29T23:40:09.733Z,12.2
2022-10-29T23:45:11.826Z,12.2
2022-10-29T23:50:14.028Z,12.2
2022-10-29T23:55:16.010Z,12.2
